Time;durP1;ratioP1;P1;durP2;ratioP2;P2;SDS_P1;SDS_P2;PMS_P1;PMS_P2;Temp;Humidity;BMP_temperature;BMP_pressure;BME280_temperature;BME280_humidity;BME280_pressure;Samples;Min_cycle;Max_cycle;Signal;HPM_P1;HPM_P2
2022/01/14 00:00:19;;;;;;;17.90;13.32;;;;;;;3.97;100.00;103712.88;5031231;28;20060;-54
2022/01/14 00:02:49;;;;;;;17.65;13.27;;;;;;;3.97;100.00;103713.75;5032765;28;20038;-55
2022/01/14 00:05:16;;;;;;;18.50;13.35;;;;;;;3.98;100.00;103706.50;5031899;28;20518;-50
2022/01/14 00:07:44;;;;;;;18.50;13.38;;;;;;;3.98;100.00;103709.19;5032659;28;20419;-48
2022/01/14 00:10:12;;;;;;;18.95;13.50;;;;;;;3.96;100.00;103712.03;5033092;28;20091;-53
2022/01/14 00:12:47;;;;;;;18.15;12.65;;;;;;;3.96;100.00;103713.88;5032152;28;20042;-53
2022/01/14 00:15:24;;;;;;;17.92;13.50;;;;;;;3.96;100.00;103716.59;5032787;28;20046;-50
2022/01/14 00:17:53;;;;;;;17.67;12.38;;;;;;;3.98;100.00;103711.88;5032427;28;20461;-52
2022/01/14 00:20:21;;;;;;;17.92;13.43;;;;;;;3.99;100.00;103710.88;5032612;28;20037;-54
2022/01/14 00:22:49;;;;;;;18.88;13.73;;;;;;;4.00;100.00;103712.59;5031286;28;20041;-55
2022/01/14 00:33:36;;;;;;;22.60;15.85;;;;;;;4.01;100.00;103687.28;5031043;28;20050;-56
2022/01/14 00:36:04;;;;;;;25.08;17.02;;;;;;;4.01;100.00;103690.00;5030858;28;20400;-52
2022/01/14 00:38:32;;;;;;;24.08;17.45;;;;;;;4.00;100.00;103685.63;5030853;28;20421;-53
2022/01/14 00:40:59;;;;;;;20.77;15.20;;;;;;;4.01;100.00;103681.91;5032385;28;20053;-54
2022/01/14 00:43:27;;;;;;;21.63;15.32;;;;;;;4.00;100.00;103682.91;5030810;28;20518;-56
2022/01/14 00:45:55;;;;;;;23.25;16.50;;;;;;;4.01;100.00;103676.50;5032091;28;20088;-52
2022/01/14 00:48:23;;;;;;;22.98;16.85;;;;;;;4.00;100.00;103669.44;5031901;28;20033;-50
2022/01/14 00:50:51;;;;;;;22.42;16.73;;;;;;;3.98;100.00;103672.28;5032205;28;20499;-54
2022/01/14 00:53:18;;;;;;;21.00;15.48;;;;;;;3.98;100.00;103661.47;5036065;28;20511;-55
2022/01/14 00:55:53;;;;;;;24.00;16.50;;;;;;;3.97;100.00;103669.72;5035655;28;20523;-52
2022/01/14 01:01:07;;;;;;;22.73;16.55;;;;;;;3.96;100.00;103662.63;5033387;28;20049;-54
2022/01/14 01:03:35;;;;;;;27.45;18.08;;;;;;;3.95;100.00;103655.56;5035602;28;20164;-54
2022/01/14 01:06:03;;;;;;;24.75;17.38;;;;;;;3.93;100.00;103642.22;5035832;28;20041;-52
2022/01/14 01:08:33;;;;;;;24.30;17.20;;;;;;;3.93;100.00;103647.59;5035684;28;20045;-55
2022/01/14 01:11:04;;;;;;;26.48;18.60;;;;;;;3.92;100.00;103650.44;5035655;28;20049;-52
2022/01/14 01:13:36;;;;;;;24.83;16.67;;;;;;;3.94;100.00;103651.16;5033991;28;20045;-51
2022/01/14 01:16:04;;;;;;;18.63;12.82;;;;;;;3.91;100.00;103655.00;5035605;28;20042;-54
2022/01/14 01:18:31;;;;;;;20.48;14.63;;;;;;;3.92;100.00;103647.75;5035174;28;20129;-52
2022/01/14 01:21:01;;;;;;;19.58;14.50;;;;;;;3.92;100.00;103647.75;5035762;28;20463;-53
2022/01/14 01:23:28;;;;;;;20.92;15.43;;;;;;;3.92;100.00;103645.06;5035518;28;20045;-54
2022/01/14 01:26:11;;;;;;;21.88;15.32;;;;;;;3.91;100.00;103652.31;5018882;28;20124;-52
2022/01/14 01:28:54;;;;;;;19.77;14.32;;;;;;;3.89;100.00;103656.16;5035652;28;20096;-56
2022/01/14 01:31:41;;;;;;;21.02;14.75;;;;;;;3.90;100.00;103657.88;5035000;28;20064;-48
2022/01/14 01:34:14;;;;;;;18.95;12.95;;;;;;;3.91;100.00;103646.06;5035134;28;20373;-49
2022/01/14 01:36:44;;;;;;;19.55;14.15;;;;;;;3.89;100.00;103639.97;5035504;28;20128;-55
2022/01/14 01:39:15;;;;;;;19.70;14.40;;;;;;;3.89;100.00;103639.97;5035500;28;20033;-51
2022/01/14 01:41:45;;;;;;;20.10;14.32;;;;;;;3.89;100.00;103642.66;5034634;28;20061;-47
2022/01/14 01:44:15;;;;;;;17.17;13.38;;;;;;;3.90;100.00;103639.00;5034819;28;20488;-54
2022/01/14 01:46:46;;;;;;;17.45;13.02;;;;;;;3.89;100.00;103637.28;5033897;28;20046;-53
2022/01/14 01:49:16;;;;;;;18.63;12.18;;;;;;;3.89;100.00;103645.38;5035183;28;20053;-51
2022/01/14 01:51:46;;;;;;;17.27;12.50;;;;;;;3.90;100.00;103639.00;5031724;28;20057;-49
2022/01/14 01:54:14;;;;;;;18.85;12.93;;;;;;;3.92;100.00;103648.63;5026107;28;20791;-53
2022/01/14 01:56:42;;;;;;;20.42;11.98;;;;;;;3.94;100.00;103643.91;5034501;28;20037;-48
2022/01/14 01:59:10;;;;;;;18.92;12.75;;;;;;;3.94;100.00;103641.19;5035075;28;20042;-49
2022/01/14 02:01:40;;;;;;;19.17;13.18;;;;;;;3.92;100.00;103645.06;5034255;28;20510;-50
2022/01/14 02:04:08;;;;;;;19.25;13.65;;;;;;;3.87;100.00;103650.91;5034120;28;20042;-50
2022/01/14 02:06:39;;;;;;;16.13;12.27;;;;;;;3.86;100.00;103657.31;5035112;28;20230;-54
2022/01/14 02:09:08;;;;;;;17.70;13.15;;;;;;;3.87;100.00;103639.28;5035116;28;20528;-50
2022/01/14 02:11:36;;;;;;;18.73;13.52;;;;;;;3.89;100.00;103645.38;5034561;28;20045;-52
2022/01/14 02:14:13;;;;;;;19.55;13.80;;;;;;;3.90;100.00;103639.00;5034617;28;20072;-51
2022/01/14 02:19:41;;;;;;;19.13;13.05;;;;;;;3.91;100.00;103637.97;5034790;28;20120;-54
2022/01/14 02:22:13;;;;;;;18.58;13.25;;;;;;;3.90;100.00;103647.09;5033922;28;20042;-50
2022/01/14 02:27:14;;;;;;;15.68;12.30;;;;;;;3.90;100.00;103647.09;5034282;28;20115;-52
2022/01/14 02:29:42;;;;;;;17.63;13.38;;;;;;;3.90;100.00;103636.28;5035039;28;20120;-51
2022/01/14 02:32:10;;;;;;;18.20;12.77;;;;;;;3.88;100.00;103639.13;5033844;28;20483;-51
2022/01/14 02:34:38;;;;;;;16.05;11.55;;;;;;;3.84;100.00;103630.47;5034107;28;20041;-49
2022/01/14 02:37:06;;;;;;;16.73;11.85;;;;;;;3.83;100.00;103634.19;5034595;28;20045;-55
2022/01/14 02:39:35;;;;;;;16.45;11.73;;;;;;;3.82;100.00;103629.81;5034249;28;20041;-50
2022/01/14 02:42:04;;;;;;;16.48;11.77;;;;;;;3.82;100.00;103624.44;5034071;28;20049;-54
2022/01/14 02:44:32;;;;;;;17.45;12.07;;;;;;;3.81;100.00;103622.72;5033986;28;20052;-53
2022/01/14 02:47:05;;;;;;;15.63;11.60;;;;;;;3.83;100.00;103614.47;5034217;28;20072;-50
2022/01/14 02:49:34;;;;;;;16.02;10.95;;;;;;;3.84;100.00;103621.56;5034269;28;20400;-54
2022/01/14 02:52:04;;;;;;;17.83;12.35;;;;;;;3.87;100.00;103615.00;5034134;28;20095;-52
2022/01/14 02:54:41;;;;;;;20.30;12.75;;;;;;;3.90;100.00;103614.72;5033419;28;20368;-51
2022/01/14 02:57:09;;;;;;;17.65;12.07;;;;;;;3.89;100.00;103610.31;5033675;28;20507;-51
2022/01/14 02:59:39;;;;;;;17.08;11.20;;;;;;;3.90;100.00;103614.72;5032892;28;20045;-51
2022/01/14 03:02:09;;;;;;;16.38;11.82;;;;;;;3.89;100.00;103618.41;5033446;28;20037;-51
2022/01/14 03:04:39;;;;;;;16.08;11.60;;;;;;;3.87;100.00;103609.59;5032870;28;20047;-51
2022/01/14 03:07:08;;;;;;;16.00;11.20;;;;;;;3.86;100.00;103608.75;5032586;28;20530;-53
2022/01/14 03:09:40;;;;;;;15.63;11.77;;;;;;;3.86;100.00;103597.97;5033892;28;20044;-49
2022/01/14 03:12:08;;;;;;;16.90;11.80;;;;;;;3.87;100.00;103606.91;5032258;28;20057;-53
2022/01/14 03:14:35;;;;;;;14.88;10.70;;;;;;;3.84;100.00;103610.75;5031034;28;20407;-52
2022/01/14 03:17:03;;;;;;;15.07;11.20;;;;;;;3.83;100.00;103604.53;5033406;28;20049;-51
2022/01/14 03:19:31;;;;;;;16.50;10.77;;;;;;;3.81;100.00;103603.84;5032262;28;20488;-55
2022/01/14 03:27:14;;;;;;;14.95;10.35;;;;;;;3.78;100.00;103609.53;5033542;28;20056;-55
2022/01/14 03:29:42;;;;;;;14.63;10.18;;;;;;;3.77;100.00;103607.81;5033212;28;20408;-53
2022/01/14 03:32:09;;;;;;;15.35;10.48;;;;;;;3.78;100.00;103609.53;5032857;28;20052;-49
2022/01/14 03:34:37;;;;;;;15.57;10.73;;;;;;;3.79;100.00;103605.84;5033325;28;20054;-50
2022/01/14 03:37:05;;;;;;;16.23;10.82;;;;;;;3.78;100.00;103601.44;5032565;28;20044;-54
2022/01/14 03:39:33;;;;;;;13.88;10.23;;;;;;;3.79;100.00;103603.13;5033532;28;20120;-53
2022/01/14 03:42:02;;;;;;;15.02;10.75;;;;;;;3.79;100.00;103597.75;5032968;28;20140;-49
2022/01/14 03:44:30;;;;;;;16.45;11.05;;;;;;;3.80;100.00;103602.16;5033044;28;20042;-51
2022/01/14 03:46:57;;;;;;;14.43;10.10;;;;;;;3.79;100.00;103592.34;5032295;28;20390;-54
2022/01/14 03:49:25;;;;;;;13.95;9.85;;;;;;;3.77;100.00;103597.03;5032935;28;20487;-53
2022/01/14 03:51:52;;;;;;;14.38;10.27;;;;;;;3.75;100.00;103593.69;5033166;28;20096;-52
2022/01/14 03:54:21;;;;;;;12.50;8.98;;;;;;;3.74;100.00;103586.56;5031932;28;20053;-51
2022/01/14 03:56:49;;;;;;;13.35;9.55;;;;;;;3.73;100.00;103582.19;5032506;28;20071;-50
2022/01/14 03:59:17;;;;;;;13.00;9.38;;;;;;;3.74;100.00;103588.44;5032609;28;20053;-54
2022/01/14 04:01:44;;;;;;;14.23;9.50;;;;;;;3.72;100.00;103585.88;5032397;28;20143;-52
2022/01/14 04:04:13;;;;;;;13.20;9.52;;;;;;;3.70;100.00;103593.28;5032908;28;20045;-51
2022/01/14 04:06:41;;;;;;;13.18;9.40;;;;;;;3.70;100.00;103595.97;5032194;28;20538;-54
2022/01/14 04:09:09;;;;;;;13.18;9.15;;;;;;;3.69;100.00;103588.88;5032790;28;20045;-52
2022/01/14 04:11:38;;;;;;;13.55;9.10;;;;;;;3.69;100.00;103583.50;5032861;28;20046;-51
2022/01/14 04:15:36;;;;;;;13.38;9.40;;;;;;;3.70;100.00;103581.63;5031764;28;20042;-52
2022/01/14 04:17:08;;;;;;;13.98;10.23;;;;;;;3.68;100.00;103580.94;5031448;28;20491;-52
2022/01/14 04:19:36;;;;;;;13.27;9.93;;;;;;;3.67;100.00;103585.50;5032111;28;20053;-50
2022/01/14 04:22:04;;;;;;;12.98;9.10;;;;;;;3.68;100.00;103589.03;5032530;28;20611;-53
2022/01/14 04:24:32;;;;;;;12.82;9.23;;;;;;;3.68;100.00;103579.13;5032322;28;20469;-50
2022/01/14 04:26:59;;;;;;;13.27;9.40;;;;;;;3.69;100.00;103579.97;5034262;28;20049;-52
2022/01/14 04:29:27;;;;;;;12.50;9.43;;;;;;;3.69;100.00;103579.97;5037339;28;20041;-50
2022/01/14 04:31:54;;;;;;;12.50;8.95;;;;;;;3.69;100.00;103579.97;5036346;28;20087;-52
2022/01/14 04:34:22;;;;;;;13.63;9.20;;;;;;;3.69;100.00;103575.41;5036605;28;20041;-50
2022/01/14 04:36:49;;;;;;;13.27;9.70;;;;;;;3.68;100.00;103573.72;5035806;28;20099;-54
2022/01/14 04:39:18;;;;;;;13.40;9.18;;;;;;;3.68;100.00;103571.03;5036732;28;20056;-52
2022/01/14 04:41:46;;;;;;;12.77;9.23;;;;;;;3.69;100.00;103570.00;5034938;28;20087;-52
2022/01/14 04:44:14;;;;;;;11.25;8.48;;;;;;;3.68;100.00;103568.34;5036576;28;20436;-50
2022/01/14 04:49:09;;;;;;;14.52;10.48;;;;;;;3.70;100.00;103565.47;5036686;28;20119;-54
2022/01/14 04:51:38;;;;;;;13.35;9.93;;;;;;;3.68;100.00;103562.06;5036721;28;20053;-51
2022/01/14 04:54:06;;;;;;;12.93;8.70;;;;;;;3.67;100.00;103550.44;5036067;28;20049;-50
2022/01/14 04:56:34;;;;;;;13.63;8.48;;;;;;;3.63;100.00;103541.84;5036127;28;20041;-53
2022/01/14 04:59:01;;;;;;;12.63;8.60;;;;;;;3.62;100.00;103537.44;5035295;28;20057;-55
2022/01/14 05:01:29;;;;;;;13.00;8.10;;;;;;;3.62;100.00;103541.97;5035759;28;20044;-53
2022/01/14 05:03:58;;;;;;;11.32;7.90;;;;;;;3.64;100.00;103545.38;5036034;28;20037;-52
2022/01/14 05:06:27;;;;;;;10.85;8.05;;;;;;;3.63;100.00;103530.19;5036307;28;20080;-51
2022/01/14 05:08:56;;;;;;;10.18;7.00;;;;;;;3.64;100.00;103534.59;5034828;28;20044;-52
2022/01/14 05:11:35;;;;;;;11.25;8.30;;;;;;;3.62;100.00;103532.03;5037626;28;20046;-50
2022/01/14 05:14:02;;;;;;;11.77;8.32;;;;;;;3.63;100.00;103528.34;5036051;28;20480;-54
2022/01/14 05:16:30;;;;;;;11.70;7.72;;;;;;;3.60;100.00;103522.41;5034669;28;20064;-54
2022/01/14 05:18:58;;;;;;;11.48;8.27;;;;;;;3.60;100.00;103523.25;5035359;28;20046;-54
2022/01/14 05:21:25;;;;;;;12.40;8.40;;;;;;;3.60;100.00;103519.72;5035424;28;20046;-57
2022/01/14 05:23:53;;;;;;;14.43;9.00;;;;;;;3.59;100.00;103520.72;5035889;28;20045;-56
2022/01/14 05:26:21;;;;;;;13.20;8.68;;;;;;;3.58;100.00;103532.50;5035860;28;20037;-56
2022/01/14 05:28:48;;;;;;;10.75;7.68;;;;;;;3.57;100.00;103528.97;5034921;28;20038;-53
2022/01/14 05:31:16;;;;;;;10.85;7.75;;;;;;;3.56;100.00;103526.41;5035279;28;20052;-50
2022/01/14 05:33:46;;;;;;;12.25;8.00;;;;;;;3.56;100.00;103537.19;5034401;28;20049;-52
2022/01/14 05:36:18;;;;;;;12.30;8.70;;;;;;;3.57;100.00;103534.34;5035472;28;20077;-56
2022/01/14 05:38:46;;;;;;;10.35;7.28;;;;;;;3.57;100.00;103536.22;5035285;28;20049;-55
2022/01/14 05:41:18;;;;;;;12.93;7.88;;;;;;;3.58;100.00;103530.66;5034661;28;20053;-54
2022/01/14 05:43:45;;;;;;;11.32;7.65;;;;;;;3.58;100.00;103524.41;5035473;28;20045;-56
2022/01/14 05:46:13;;;;;;;10.55;7.72;;;;;;;3.57;100.00;103528.13;5035388;28;20033;-48
2022/01/14 05:48:41;;;;;;;13.52;8.90;;;;;;;3.56;100.00;103526.41;5035008;28;20107;-50
2022/01/14 05:51:08;;;;;;;11.98;7.60;;;;;;;3.54;100.00;103523.88;5033494;28;20060;-56
2022/01/14 05:53:36;;;;;;;11.63;8.38;;;;;;;3.53;100.00;103515.94;5035357;28;20037;-51
2022/01/14 05:56:04;;;;;;;13.07;8.30;;;;;;;3.52;100.00;103516.97;5033984;28;20046;-52
2022/01/14 05:58:31;;;;;;;13.18;8.55;;;;;;;3.51;100.00;103534.09;5034964;28;20460;-51
2022/01/14 06:00:59;;;;;;;13.23;8.27;;;;;;;3.53;100.00;103534.81;5034818;28;20046;-57
2022/01/14 06:03:27;;;;;;;11.48;7.50;;;;;;;3.52;100.00;103533.97;5034642;28;20157;-50
2022/01/14 06:05:55;;;;;;;12.52;8.60;;;;;;;3.53;100.00;103540.19;5034911;28;20045;-50
2022/01/14 06:08:23;;;;;;;11.23;7.70;;;;;;;3.53;100.00;103529.41;5035444;28;20048;-55
2022/01/14 06:10:50;;;;;;;12.05;7.05;;;;;;;3.55;100.00;103536.34;5034178;28;20029;-53
2022/01/14 06:13:18;;;;;;;12.35;8.50;;;;;;;3.57;100.00;103533.50;5034231;28;20049;-50
2022/01/14 06:15:46;;;;;;;14.13;9.02;;;;;;;3.56;100.00;103531.78;5034800;28;20045;-55
2022/01/14 06:18:13;;;;;;;11.63;7.85;;;;;;;3.56;100.00;103542.59;5034432;28;20057;-55
2022/01/14 06:20:41;;;;;;;14.68;8.70;;;;;;;3.52;100.00;103533.13;5034912;28;20048;-52
2022/01/14 06:23:09;;;;;;;11.55;8.18;;;;;;;3.51;100.00;103534.97;5033951;28;20057;-52
2022/01/14 06:25:36;;;;;;;11.90;8.25;;;;;;;3.49;100.00;103530.72;5034682;28;20060;-54
2022/01/14 06:28:04;;;;;;;11.85;7.35;;;;;;;3.52;100.00;103533.13;5034418;28;20420;-53
2022/01/14 06:30:32;;;;;;;14.07;9.07;;;;;;;3.51;100.00;103540.38;5034228;28;20072;-49
2022/01/14 06:32:59;;;;;;;15.80;8.75;;;;;;;3.53;100.00;103540.19;5033636;28;20045;-50
2022/01/14 06:35:27;;;;;;;12.18;8.27;;;;;;;3.53;100.00;103530.25;5034597;28;20416;-52
2022/01/14 06:37:57;;;;;;;12.35;8.30;;;;;;;3.55;100.00;103530.97;5034317;28;20407;-51
2022/01/14 06:40:24;;;;;;;11.40;7.18;;;;;;;3.55;100.00;103530.97;5034207;28;20491;-50
2022/01/14 06:42:52;;;;;;;14.45;8.18;;;;;;;3.56;100.00;103534.50;5034067;28;20045;-50
2022/01/14 06:45:20;;;;;;;11.27;8.05;;;;;;;3.56;100.00;103531.78;5033838;28;20042;-50
2022/01/14 06:47:48;;;;;;;13.18;9.20;;;;;;;3.53;100.00;103535.66;5034276;28;20061;-54
2022/01/14 06:50:17;;;;;;;15.20;9.02;;;;;;;3.53;100.00;103537.50;5033150;28;20467;-51
2022/01/14 06:52:45;;;;;;;13.20;8.05;;;;;;;3.52;100.00;103539.34;5033338;28;20052;-52
2022/01/14 06:55:12;;;;;;;12.30;8.43;;;;;;;3.53;100.00;103537.50;4334014;28;10000674;-50
2022/01/14 06:57:40;;;;;;;12.75;8.93;;;;;;;3.52;100.00;103541.22;5012686;28;20281;-52
2022/01/14 07:00:14;;;;;;;10.45;6.68;;;;;;;3.58;100.00;103521.72;5012912;28;20050;-55
2022/01/14 07:02:42;;;;;;;13.05;8.95;;;;;;;3.62;100.00;103525.81;5019212;28;20038;-54
2022/01/14 07:05:10;;;;;;;10.52;7.93;;;;;;;3.60;100.00;103519.72;5031977;28;20156;-55
2022/01/14 07:07:38;;;;;;;13.43;8.32;;;;;;;3.60;100.00;103527.81;5032119;28;20041;-56
2022/01/14 07:10:07;;;;;;;10.90;6.93;;;;;;;3.59;100.00;103528.81;5031891;28;20492;-54
2022/01/14 07:12:37;;;;;;;9.05;6.57;;;;;;;3.61;100.00;103524.13;5030175;28;20048;-55
2022/01/14 07:15:08;;;;;;;10.02;6.70;;;;;;;3.64;100.00;103534.59;5023495;28;20037;-55
2022/01/14 07:17:36;;;;;;;11.00;7.28;;;;;;;3.61;100.00;103537.59;5030155;28;20088;-51
2022/01/14 07:20:11;;;;;;;10.77;6.82;;;;;;;3.59;100.00;103532.34;5031953;28;20041;-50
2022/01/14 07:22:45;;;;;;;12.10;6.93;;;;;;;3.57;100.00;103534.34;5031686;28;20045;-56
2022/01/14 07:25:17;;;;;;;10.27;6.78;;;;;;;3.54;100.00;103544.59;5031284;28;20045;-53
2022/01/14 07:27:45;;;;;;;11.00;6.53;;;;;;;3.57;100.00;103547.00;5031862;28;20404;-54
2022/01/14 07:30:14;;;;;;;10.52;6.25;;;;;;;3.54;100.00;103540.06;5030643;28;20049;-54
2022/01/14 07:32:43;;;;;;;9.82;5.57;;;;;;;3.58;100.00;103537.88;5031327;28;20045;-50
2022/01/14 07:35:11;;;;;;;10.88;7.55;;;;;;;3.57;100.00;103544.28;5030711;28;20491;-55
2022/01/14 07:37:40;;;;;;;8.73;6.03;;;;;;;3.53;100.00;103545.59;5029674;28;20053;-52
2022/01/14 07:40:08;;;;;;;11.27;6.13;;;;;;;3.55;100.00;103543.59;5030987;28;20049;-57
2022/01/14 07:42:36;;;;;;;10.27;6.68;;;;;;;3.53;100.00;103548.28;5031384;28;20047;-52
2022/01/14 07:45:04;;;;;;;9.27;6.18;;;;;;;3.51;100.00;103544.91;5030834;28;20037;-53
2022/01/14 07:47:32;;;;;;;9.95;6.50;;;;;;;3.51;100.00;103545.75;5030635;28;20160;-51
2022/01/14 07:50:00;;;;;;;11.75;7.22;;;;;;;3.50;100.00;103543.22;5031416;28;20403;-53
2022/01/14 07:52:28;;;;;;;9.50;5.97;;;;;;;3.49;100.00;103530.72;5031514;28;20045;-55
2022/01/14 07:54:55;;;;;;;7.50;5.20;;;;;;;3.48;100.00;103523.66;5033092;28;20823;-49
2022/01/14 07:57:23;;;;;;;10.10;5.82;;;;;;;3.64;100.00;103526.50;5030781;28;20451;-51
2022/01/14 07:59:50;;;;;;;9.60;6.18;;;;;;;3.62;100.00;103536.59;5032190;28;20045;-52
2022/01/14 08:02:21;;;;;;;8.65;4.93;;;;;;;3.69;100.00;103537.66;5032611;28;20044;-52
2022/01/14 08:04:49;;;;;;;11.10;7.25;;;;;;;3.52;100.00;103544.75;5032458;28;20046;-52
2022/01/14 08:07:22;;;;;;;10.57;7.03;;;;;;;3.48;100.00;103534.44;5031516;28;20042;-52
2022/01/14 08:09:53;;;;;;;;;;;;;;;3.46;100.00;103525.66;5033017;28;20401;-56
2022/01/14 08:12:20;;;;;;;10.38;7.40;;;;;;;3.45;100.00;103535.59;5032490;28;19940;-54
2022/01/14 08:14:48;;;;;;;9.63;6.13;;;;;;;3.41;100.00;103526.09;5032485;28;20057;-54
2022/01/14 08:17:18;;;;;;;11.27;7.13;;;;;;;3.40;100.00;103536.03;5031976;28;20463;-50
2022/01/14 08:19:46;;;;;;;12.82;7.93;;;;;;;3.31;100.00;103528.88;5031156;28;20069;-52
2022/01/14 08:22:14;;;;;;;10.13;7.35;;;;;;;3.31;100.00;103544.19;5032392;28;20052;-54
2022/01/14 08:24:41;;;;;;;13.02;8.27;;;;;;;3.29;100.00;103544.34;5031120;28;20454;-50
2022/01/14 08:27:09;;;;;;;10.13;6.32;;;;;;;3.32;100.00;103545.88;5032474;28;20068;-54
2022/01/14 08:29:36;;;;;;;13.18;8.05;;;;;;;3.34;100.00;103558.22;5032366;28;20046;-51
2022/01/14 08:32:04;;;;;;;11.60;7.15;;;;;;;3.38;100.00;103534.50;5032060;28;20048;-55
2022/01/14 08:34:32;;;;;;;14.23;8.48;;;;;;;3.37;100.00;103539.06;5031870;28;20050;-53
2022/01/14 08:37:00;;;;;;;14.27;8.25;;;;;;;3.35;100.00;103546.44;5031936;28;20091;-55
2022/01/14 08:39:28;;;;;;;12.75;7.70;;;;;;;3.34;100.00;103550.16;5032171;28;20042;-54
2022/01/14 08:41:56;;;;;;;14.27;8.43;;;;;;;3.35;100.00;103550.97;5032030;28;20053;-54
2022/01/14 08:44:23;;;;;;;14.82;8.77;;;;;;;3.33;100.00;103561.91;5030921;28;20103;-52
2022/01/14 08:46:52;;;;;;;14.35;8.35;;;;;;;3.32;100.00;103565.63;5031920;28;20116;-51
2022/01/14 08:49:20;;;;;;;14.85;7.88;;;;;;;3.34;100.00;103569.00;5032945;28;20037;-52
2022/01/14 08:51:49;;;;;;;13.93;7.60;;;;;;;3.38;100.00;103554.22;5031877;28;20046;-54
2022/01/14 08:54:17;;;;;;;14.77;7.72;;;;;;;3.37;100.00;103549.84;5032264;28;20087;-54
2022/01/14 08:56:45;;;;;;;13.05;7.45;;;;;;;3.44;100.00;103538.41;5031788;28;20038;-56
2022/01/14 08:59:16;;;;;;;19.55;9.18;;;;;;;3.40;100.00;103543.28;5032032;28;20044;-56
2022/01/14 09:01:44;;;;;;;21.25;9.43;;;;;;;3.37;100.00;103549.84;5030032;28;20056;-56
2022/01/14 09:04:12;;;;;;;16.13;8.25;;;;;;;3.35;100.00;103549.13;5031669;28;20111;-52
2022/01/14 09:06:40;;;;;;;14.88;8.38;;;;;;;3.37;100.00;103544.44;5032073;28;20129;-49
2022/01/14 09:09:08;;;;;;;16.20;7.97;;;;;;;3.41;100.00;103542.28;5031661;28;20124;-51
2022/01/14 09:11:35;;;;;;;14.75;8.45;;;;;;;3.45;100.00;103540.13;5031687;28;20053;-49
2022/01/14 09:14:03;;;;;;;19.08;8.88;;;;;;;3.44;100.00;103549.19;5034638;28;20044;-56
2022/01/14 09:16:31;;;;;;;15.65;8.60;;;;;;;3.44;100.00;103543.81;5042386;28;20064;-52
2022/01/14 09:18:59;;;;;;;13.88;8.27;;;;;;;3.40;100.00;103554.91;5052463;28;20047;-48
2022/01/14 09:21:26;;;;;;;15.07;7.03;;;;;;;3.34;100.00;103551.97;5034294;28;20471;-54
2022/01/14 09:24:03;;;;;;;13.23;8.18;;;;;;;3.34;100.00;103566.31;5035334;28;20053;-52
2022/01/14 09:26:33;;;;;;;14.40;8.23;;;;;;;3.38;100.00;103566.84;4339229;28;10000298;-62
2022/01/14 09:29:01;;;;;;;12.73;7.75;;;;;;;3.41;100.00;103567.38;5033484;28;20051;-52
2022/01/14 09:31:29;;;;;;;12.65;8.27;;;;;;;3.44;100.00;103560.84;5029517;28;20040;-57
2022/01/14 09:33:57;;;;;;;13.07;8.82;;;;;;;3.44;100.00;103563.56;5032197;28;20054;-55
2022/01/14 09:36:25;;;;;;;14.05;8.63;;;;;;;3.45;100.00;103556.31;5033584;28;20499;-54
2022/01/14 09:38:53;;;;;;;13.50;8.73;;;;;;;3.44;100.00;103566.25;5016281;28;20052;-56
2022/01/14 09:41:20;;;;;;;16.27;9.63;;;;;;;3.45;100.00;103559.84;5030411;28;20107;-54
2022/01/14 09:43:48;;;;;;;13.85;9.50;;;;;;;3.46;100.00;103566.06;5032658;28;20123;-56
2022/01/14 09:46:16;;;;;;;12.20;8.48;;;;;;;3.48;100.00;103566.78;5032066;28;20053;-53
2022/01/14 09:48:49;;;;;;;12.95;8.68;;;;;;;3.50;100.00;103575.56;5033004;28;20423;-55
2022/01/14 09:51:17;;;;;;;13.02;8.95;;;;;;;3.49;100.00;103568.44;5033093;28;20044;-52
2022/01/14 09:53:45;;;;;;;12.95;8.25;;;;;;;3.50;100.00;103575.56;5032071;28;20088;-53
2022/01/14 09:56:21;;;;;;;13.27;8.73;;;;;;;3.52;100.00;103581.66;5033226;28;20064;-52
2022/01/14 09:58:49;;;;;;;11.73;7.40;;;;;;;3.54;100.00;103585.03;5033009;28;20486;-52
2022/01/14 10:01:22;;;;;;;15.27;8.85;;;;;;;3.52;100.00;103578.94;5032859;28;20041;-50
2022/01/14 10:03:57;;;;;;;14.15;9.48;;;;;;;3.52;100.00;103576.25;5034346;28;20053;-53
2022/01/14 10:06:37;;;;;;;15.55;9.98;;;;;;;3.52;100.00;103578.94;5034612;28;20041;-51
2022/01/14 10:09:21;;;;;;;16.83;9.80;;;;;;;3.53;100.00;103586.03;5034444;28;20049;-52
2022/01/14 10:12:16;;;;;;;16.48;10.77;;;;;;;3.50;100.00;103575.56;5034176;28;20049;-52
2022/01/14 10:14:53;;;;;;;19.10;11.38;;;;;;;3.53;100.00;103580.63;5033308;28;20056;-54
2022/01/14 10:17:20;;;;;;;17.83;10.93;;;;;;;3.55;100.00;103578.63;5033914;28;20076;-55
2022/01/14 10:19:48;;;;;;;16.38;10.98;;;;;;;3.54;100.00;103571.56;5034023;28;20068;-56
2022/01/14 10:22:26;;;;;;;18.15;11.18;;;;;;;3.53;100.00;103577.94;5034186;28;20068;-55
2022/01/14 10:25:00;;;;;;;14.38;9.05;;;;;;;3.59;100.00;103569.25;5017208;28;20128;-55
2022/01/14 10:27:36;;;;;;;14.00;8.52;;;;;;;3.63;100.00;103571.50;5034676;28;20058;-50
2022/01/14 10:30:16;;;;;;;16.77;9.43;;;;;;;3.72;100.00;103569.69;5033985;28;20042;-56
2022/01/14 10:32:46;;;;;;;14.95;9.48;;;;;;;3.76;100.00;103575.66;5034264;28;20523;-57
2022/01/14 10:35:16;;;;;;;15.48;9.73;;;;;;;3.77;100.00;103578.16;5032307;28;20519;-57
2022/01/14 10:37:44;;;;;;;14.82;9.40;;;;;;;3.77;100.00;103578.16;5033294;28;20053;-53
2022/01/14 10:40:22;;;;;;;13.35;8.82;;;;;;;3.81;100.00;103571.47;5032346;28;20140;-53
2022/01/14 10:42:52;;;;;;;14.98;9.52;;;;;;;3.82;100.00;103565.09;5032419;28;20037;-56
2022/01/14 10:45:41;;;;;;;15.65;8.68;;;;;;;3.85;100.00;103569.31;5032694;28;20393;-56
2022/01/14 10:48:10;;;;;;;15.55;10.45;;;;;;;3.84;100.00;103559.53;5032901;28;20120;-54
2022/01/14 10:50:55;;;;;;;17.92;11.40;;;;;;;3.83;100.00;103560.53;5032398;28;20047;-56
2022/01/14 10:53:54;;;;;;;18.42;11.80;;;;;;;3.74;100.00;103562.31;5033965;28;20049;-56
2022/01/14 10:56:25;;;;;;;20.42;12.18;;;;;;;3.69;100.00;103564.63;5031803;28;20053;-54
2022/01/14 10:58:58;;;;;;;16.65;10.27;;;;;;;3.70;100.00;103560.91;5032515;28;20045;-55
2022/01/14 11:01:26;;;;;;;20.05;12.80;;;;;;;3.74;100.00;103551.53;5031996;28;20054;-56
2022/01/14 11:03:57;;;;;;;22.13;14.75;;;;;;;3.78;100.00;103544.81;5033541;28;20125;-58
2022/01/14 11:06:30;;;;;;;18.20;11.95;;;;;;;3.81;100.00;103547.19;5033296;28;20064;-56
2022/01/14 11:09:02;;;;;;;17.38;11.30;;;;;;;3.80;100.00;103547.34;5032152;28;20430;-51
2022/01/14 11:11:32;;;;;;;19.55;11.45;;;;;;;3.73;100.00;103532.78;5033360;28;20049;-54
2022/01/14 11:14:00;;;;;;;18.20;11.70;;;;;;;3.70;100.00;103536.66;5033645;28;20112;-57
2022/01/14 11:16:28;;;;;;;19.27;12.38;;;;;;;3.67;100.00;103528.03;5033384;28;20041;-51
2022/01/14 11:18:59;;;;;;;18.55;11.40;;;;;;;3.68;100.00;103541.38;5006554;28;20046;-49
2022/01/14 11:24:15;;;;;;;23.95;15.55;;;;;;;3.72;100.00;103539.19;5032479;28;20060;-54
2022/01/14 11:26:43;;;;;;;58.92;34.65;;;;;;;3.76;100.00;103530.66;5015555;28;20034;-53
2022/01/14 11:29:14;;;;;;;20.15;12.73;;;;;;;3.79;100.00;103530.31;5014731;28;20053;-53
2022/01/14 11:31:43;;;;;;;17.58;11.43;;;;;;;3.79;100.00;103532.19;4338176;28;10000787;-54
2022/01/14 11:34:32;;;;;;;22.02;12.55;;;;;;;3.81;100.00;103536.41;5031413;28;20063;-52
2022/01/14 11:37:13;;;;;;;17.25;10.07;;;;;;;3.83;100.00;103542.50;5031269;28;20049;-51
2022/01/14 11:39:55;;;;;;;15.07;11.07;;;;;;;3.87;100.00;103547.56;5030707;28;20136;-55
2022/01/14 11:42:41;;;;;;;18.42;12.13;;;;;;;3.92;100.00;103545.25;5031395;28;20119;-53
2022/01/14 11:45:12;;;;;;;43.38;24.45;;;;;;;3.95;100.00;103542.25;5029875;28;20132;-54
2022/01/14 11:47:41;;;;;;;18.75;12.70;;;;;;;3.97;100.00;103529.44;5031479;28;20038;-52
2022/01/14 11:50:24;;;;;;;18.40;11.90;;;;;;;3.97;100.00;103527.63;5030162;28;20041;-55
2022/01/14 11:52:52;;;;;;;49.75;28.33;;;;;;;4.02;100.00;103527.16;5031175;28;20407;-50